Legato 2 — 3FRD6 — position and weather

sailwx.info

Track history (hours):
 
Tides and Currents Weather Stations Pressure Air Temp Water Temp Dewpoint Dewpoint Depression Visibility Wind Speed Wind Dir Waves Ship Positions

Legato 2

Last reported at 2018-Apr-13 22:05 UTC. Time now 2018-Apr-22 14:11 UTC.
Position S 27°36' E 153°55'.
Warning: this ship's position is 8 days out of date.

Length 221 m; draft 14.3 m.

Type: Cargo ship. MMSI: 371377000.

Date/timePositionNaut miles runAvg speedWind from/ knotsBaromVisibWave heightAir tempDewpointWater temp
2018-Apr-13 22:05S 27°36' E 153°55'1 9.0
2018-Apr-13 21:58S 27°38' E 153°55'5 9.1
2018-Apr-13 21:24S 27°43' E 153°55'4 9.0
2018-Apr-13 20:56S 27°47' E 153°55'4 8.8
2018-Apr-13 20:30S 27°51' E 153°54'4 8.7
2018-Apr-13 20:00S 27°55' E 153°54'4 8.6
2018-Apr-13 19:29S 27°59' E 153°54'8 8.5
2018-Apr-13 18:30S 28°08' E 153°54'4 8.4
2018-Apr-13 18:00S 28°12' E 153°53'4 8.1
2018-Apr-13 17:30S 28°16' E 153°53'4 8.0
2018-Apr-13 17:00S 28°20' E 153°53'4 7.9
2018-Apr-13 16:30S 28°24' E 153°53'4 7.8
2018-Apr-13 15:57S 28°28' E 153°53'4 7.8
2018-Apr-13 15:24S 28°33' E 153°52'3 7.9
2018-Apr-13 15:00S 28°36' E 153°52'218 6.8
2018-Apr-12 07:04S 32°08' E 152°56'0 5.7
2018-Apr-12 06:59S 32°08' E 152°56'3 6.0
2018-Apr-12 06:29S 32°11' E 152°54'3 6.2
2018-Apr-12 05:58S 32°13' E 152°52'3 6.2
2018-Apr-12 05:30S 32°16' E 152°50'8 8.1
2018-Apr-12 04:29S 32°23' E 152°45'5 9.6
2018-Apr-12 04:00S 32°27' E 152°42'5 9.9
2018-Apr-12 03:30S 32°31' E 152°39'5 9.9
2018-Apr-12 03:00S 32°35' E 152°36'5 9.8
2018-Apr-12 02:31S 32°40' E 152°33'5 9.9
2018-Apr-12 02:00S 32°44' E 152°30'5 9.9
2018-Apr-12 01:30S 32°48' E 152°27'510.2
2018-Apr-12 01:00S 32°50' E 152°21'510.3
2018-Apr-12 00:30S 32°52' E 152°15'510.2
2018-Apr-12 00:00S 32°54' E 152°10'510.2
2018-Apr-11 23:30S 32°56' E 152°04'510.5
2018-Apr-11 23:00S 32°58' E 151°58'5 9.5
2018-Apr-11 22:30S 32°60' E 151°53'5 9.9
2018-Apr-11 22:00S 32°56' E 151°49'2 4.6
2018-Apr-11 21:30S 32°55' E 151°47'2 4.3
2018-Apr-11 21:00S 32°53' E 151°46'1 1.3
2018-Apr-11 20:30S 32°53' E 151°45'0 0.0
2018-Apr-11 20:00S 32°53' E 151°45'0 0.0
2018-Apr-11 19:30S 32°53' E 151°45'0 0.0
2018-Apr-11 19:00S 32°53' E 151°45'0 0.0
2018-Apr-11 18:30S 32°53' E 151°45'0 0.0
2018-Apr-11 18:00S 32°53' E 151°45'0 0.0
2018-Apr-11 17:30S 32°53' E 151°45'0 0.0
2018-Apr-11 17:00S 32°53' E 151°45'0 0.0
2018-Apr-11 16:30S 32°53' E 151°45'0 0.0
2018-Apr-11 16:00S 32°53' E 151°45'0 0.0
2018-Apr-11 15:30S 32°53' E 151°45'0 0.0
2018-Apr-11 15:00S 32°53' E 151°45'0 0.0
2018-Apr-11 14:30S 32°53' E 151°45'0 0.0
2018-Apr-11 14:00S 32°53' E 151°45'0 0.0
2018-Apr-11 13:30S 32°53' E 151°45'0 0.0
2018-Apr-11 12:58S 32°53' E 151°45'0 0.0
2018-Apr-11 12:28S 32°53' E 151°45'0 0.0
2018-Apr-11 11:55S 32°53' E 151°45'0 0.0
2018-Apr-11 11:28S 32°53' E 151°45'0 0.0
2018-Apr-11 10:58S 32°53' E 151°45'0 0.0
2018-Apr-11 10:22S 32°53' E 151°45'0 0.0
2018-Apr-11 09:58S 32°53' E 151°45'0 0.0
2018-Apr-11 09:19S 32°53' E 151°45'0 0.0
2018-Apr-11 08:58S 32°53' E 151°45'0 0.0
2018-Apr-11 08:28S 32°53' E 151°45'0 0.0
2018-Apr-11 07:58S 32°53' E 151°45'0 0.0
2018-Apr-11 07:28S 32°53' E 151°45'0 0.0
2018-Apr-11 06:52S 32°53' E 151°45'0 0.0
2018-Apr-11 06:28S 32°53' E 151°45'0 0.0
2018-Apr-11 05:10S 32°53' E 151°45'0 0.0
2018-Apr-11 00:28S 32°53' E 151°45'0 0.0
2018-Apr-10 23:55S 32°53' E 151°45'0 0.0
2018-Apr-10 23:25S 32°53' E 151°45'0 0.0
2018-Apr-10 22:55S 32°53' E 151°45'0 0.0
2018-Apr-10 22:22S 32°53' E 151°45'0 0.0
2018-Apr-10 18:37S 32°53' E 151°45'0 0.0
2018-Apr-10 05:54S 32°53' E 151°45'1 1.9
2018-Apr-10 05:30S 32°53' E 151°46'2 3.5
2018-Apr-10 05:00S 32°55' E 151°47'3 6.9
2018-Apr-10 04:30S 32°55' E 151°51'4 7.4
2018-Apr-10 03:59S 32°59' E 151°53'3 6.2
2018-Apr-10 03:30S 32°60' E 151°56'4 8.3
2018-Apr-10 03:00S 32°58' E 152°00'611.7
2018-Apr-10 02:30S 32°55' E 152°06'3 5.0
2018-Apr-10 02:00S 32°54' E 152°09'0 1.0
2018-Apr-10 01:30S 32°54' E 152°09'1 1.0
2018-Apr-10 01:00S 32°55' E 152°09'1 1.1
2018-Apr-10 00:31S 32°55' E 152°09'1 1.2
2018-Apr-10 00:00S 32°56' E 152°09'1 1.0
2018-Apr-09 23:30S 32°56' E 152°09'1 1.2
2018-Apr-09 23:00S 32°57' E 152°09'1 1.2
2018-Apr-09 22:30S 32°58' E 152°09'1 1.3
2018-Apr-09 22:00S 32°58' E 152°09'1 1.3
2018-Apr-09 21:30S 32°59' E 152°08'1 1.3
2018-Apr-09 21:00S 32°60' E 152°08'1 1.3
2018-Apr-09 20:31S 33°00' E 152°08'1 1.4
2018-Apr-09 20:00S 33°01' E 152°08'1 1.5
2018-Apr-09 19:30S 33°02' E 152°08'0 0.9
2018-Apr-09 19:01S 33°02' E 152°08'5 8.9
2018-Apr-09 18:29S 32°59' E 152°04'4 8.5
2018-Apr-09 18:00S 32°57' E 151°60'5 9.9
2018-Apr-09 17:30S 32°55' E 152°05'611.8
2018-Apr-09 17:01S 32°53' E 152°12'611.8
2018-Apr-09 16:30S 32°51' E 152°18'611.7
2018-Apr-09 16:00S 32°49' E 152°25'611.3
2018-Apr-09 15:31S 32°45' E 152°29'611.3
2018-Apr-09 15:00S 32°40' E 152°33'611.1
2018-Apr-09 14:29S 32°35' E 152°36'510.9
2018-Apr-09 14:01S 32°31' E 152°39'611.1
2018-Apr-09 13:30S 32°26' E 152°43'4114.0
2018-Apr-09 10:35S 31°50' E 153°06'115.6
2018-Apr-09 10:30S 31°49' E 153°06'815.5
2018-Apr-09 10:01S 31°41' E 153°08'815.3
2018-Apr-09 09:30S 31°34' E 153°10'815.5
2018-Apr-09 09:00S 31°26' E 153°12'816.3
2018-Apr-09 08:30S 31°18' E 153°14'13415.7
2018-Apr-08 23:59S 29°07' E 153°45'914.6
2018-Apr-08 23:21S 28°58' E 153°47'514.5
2018-Apr-08 23:00S 28°53' E 153°48'714.8
2018-Apr-08 22:30S 28°46' E 153°50'714.8
2018-Apr-08 22:00S 28°38' E 153°52'714.8
2018-Apr-08 21:30S 28°31' E 153°53'714.8
2018-Apr-08 21:00S 28°24' E 153°53'714.6
2018-Apr-08 20:30S 28°16' E 153°53'714.3
2018-Apr-08 20:00S 28°09' E 153°53'714.2
2018-Apr-08 19:30S 28°02' E 153°54'713.7
2018-Apr-08 19:01S 27°55' E 153°54'713.6
2018-Apr-08 18:29S 27°48' E 153°55'713.5
2018-Apr-08 18:00S 27°42' E 153°55'  
Track history (hours):
 
Tides and Currents Weather Stations Pressure Air Temp Water Temp Dewpoint Dewpoint Depression Visibility Wind Speed Wind Dir Waves Ship Positions

Legato 2

Last reported at 2018-Apr-13 22:05 UTC. Time now 2018-Apr-22 14:11 UTC.
Position S 27°36' E 153°55'.
Warning: this ship's position is 8 days out of date.

Length 221 m; draft 14.3 m.

Type: Cargo ship. MMSI: 371377000.

Date/timePositionNaut miles runAvg speedWind from/ knotsBaromVisibWave heightAir tempDewpointWater temp
2018-Apr-13 22:05S 27°36' E 153°55'1 9.0
2018-Apr-13 21:58S 27°38' E 153°55'5 9.1
2018-Apr-13 21:24S 27°43' E 153°55'4 9.0
2018-Apr-13 20:56S 27°47' E 153°55'4 8.8
2018-Apr-13 20:30S 27°51' E 153°54'4 8.7
2018-Apr-13 20:00S 27°55' E 153°54'4 8.6
2018-Apr-13 19:29S 27°59' E 153°54'8 8.5
2018-Apr-13 18:30S 28°08' E 153°54'4 8.4
2018-Apr-13 18:00S 28°12' E 153°53'4 8.1
2018-Apr-13 17:30S 28°16' E 153°53'4 8.0
2018-Apr-13 17:00S 28°20' E 153°53'4 7.9
2018-Apr-13 16:30S 28°24' E 153°53'4 7.8
2018-Apr-13 15:57S 28°28' E 153°53'4 7.8
2018-Apr-13 15:24S 28°33' E 153°52'3 7.9
2018-Apr-13 15:00S 28°36' E 153°52'218 6.8
2018-Apr-12 07:04S 32°08' E 152°56'0 5.7
2018-Apr-12 06:59S 32°08' E 152°56'3 6.0
2018-Apr-12 06:29S 32°11' E 152°54'3 6.2
2018-Apr-12 05:58S 32°13' E 152°52'3 6.2
2018-Apr-12 05:30S 32°16' E 152°50'8 8.1
2018-Apr-12 04:29S 32°23' E 152°45'5 9.6
2018-Apr-12 04:00S 32°27' E 152°42'5 9.9
2018-Apr-12 03:30S 32°31' E 152°39'5 9.9
2018-Apr-12 03:00S 32°35' E 152°36'5 9.8
2018-Apr-12 02:31S 32°40' E 152°33'5 9.9
2018-Apr-12 02:00S 32°44' E 152°30'5 9.9
2018-Apr-12 01:30S 32°48' E 152°27'510.2
2018-Apr-12 01:00S 32°50' E 152°21'510.3
2018-Apr-12 00:30S 32°52' E 152°15'510.2
2018-Apr-12 00:00S 32°54' E 152°10'510.2
2018-Apr-11 23:30S 32°56' E 152°04'510.5
2018-Apr-11 23:00S 32°58' E 151°58'5 9.5
2018-Apr-11 22:30S 32°60' E 151°53'5 9.9
2018-Apr-11 22:00S 32°56' E 151°49'2 4.6
2018-Apr-11 21:30S 32°55' E 151°47'2 4.3
2018-Apr-11 21:00S 32°53' E 151°46'1 1.3
2018-Apr-11 20:30S 32°53' E 151°45'0 0.0
2018-Apr-11 20:00S 32°53' E 151°45'0 0.0
2018-Apr-11 19:30S 32°53' E 151°45'0 0.0
2018-Apr-11 19:00S 32°53' E 151°45'0 0.0
2018-Apr-11 18:30S 32°53' E 151°45'0 0.0
2018-Apr-11 18:00S 32°53' E 151°45'0 0.0
2018-Apr-11 17:30S 32°53' E 151°45'0 0.0
2018-Apr-11 17:00S 32°53' E 151°45'0 0.0
2018-Apr-11 16:30S 32°53' E 151°45'0 0.0
2018-Apr-11 16:00S 32°53' E 151°45'0 0.0
2018-Apr-11 15:30S 32°53' E 151°45'0 0.0
2018-Apr-11 15:00S 32°53' E 151°45'0 0.0
2018-Apr-11 14:30S 32°53' E 151°45'0 0.0
2018-Apr-11 14:00S 32°53' E 151°45'0 0.0
2018-Apr-11 13:30S 32°53' E 151°45'0 0.0
2018-Apr-11 12:58S 32°53' E 151°45'0 0.0
2018-Apr-11 12:28S 32°53' E 151°45'0 0.0
2018-Apr-11 11:55S 32°53' E 151°45'0 0.0
2018-Apr-11 11:28S 32°53' E 151°45'0 0.0
2018-Apr-11 10:58S 32°53' E 151°45'0 0.0
2018-Apr-11 10:22S 32°53' E 151°45'0 0.0
2018-Apr-11 09:58S 32°53' E 151°45'0 0.0
2018-Apr-11 09:19S 32°53' E 151°45'0 0.0
2018-Apr-11 08:58S 32°53' E 151°45'0 0.0
2018-Apr-11 08:28S 32°53' E 151°45'0 0.0
2018-Apr-11 07:58S 32°53' E 151°45'0 0.0
2018-Apr-11 07:28S 32°53' E 151°45'0 0.0
2018-Apr-11 06:52S 32°53' E 151°45'0 0.0
2018-Apr-11 06:28S 32°53' E 151°45'0 0.0
2018-Apr-11 05:10S 32°53' E 151°45'0 0.0
2018-Apr-11 00:28S 32°53' E 151°45'0 0.0
2018-Apr-10 23:55S 32°53' E 151°45'0 0.0
2018-Apr-10 23:25S 32°53' E 151°45'0 0.0
2018-Apr-10 22:55S 32°53' E 151°45'0 0.0
2018-Apr-10 22:22S 32°53' E 151°45'0 0.0
2018-Apr-10 18:37S 32°53' E 151°45'0 0.0
2018-Apr-10 05:54S 32°53' E 151°45'1 1.9
2018-Apr-10 05:30S 32°53' E 151°46'2 3.5
2018-Apr-10 05:00S 32°55' E 151°47'3 6.9
2018-Apr-10 04:30S 32°55' E 151°51'4 7.4
2018-Apr-10 03:59S 32°59' E 151°53'3 6.2
2018-Apr-10 03:30S 32°60' E 151°56'4 8.3
2018-Apr-10 03:00S 32°58' E 152°00'611.7
2018-Apr-10 02:30S 32°55' E 152°06'3 5.0
2018-Apr-10 02:00S 32°54' E 152°09'0 1.0
2018-Apr-10 01:30S 32°54' E 152°09'1 1.0
2018-Apr-10 01:00S 32°55' E 152°09'1 1.1
2018-Apr-10 00:31S 32°55' E 152°09'1 1.2
2018-Apr-10 00:00S 32°56' E 152°09'1 1.0
2018-Apr-09 23:30S 32°56' E 152°09'1 1.2
2018-Apr-09 23:00S 32°57' E 152°09'1 1.2
2018-Apr-09 22:30S 32°58' E 152°09'1 1.3
2018-Apr-09 22:00S 32°58' E 152°09'1 1.3
2018-Apr-09 21:30S 32°59' E 152°08'1 1.3
2018-Apr-09 21:00S 32°60' E 152°08'1 1.3
2018-Apr-09 20:31S 33°00' E 152°08'1 1.4
2018-Apr-09 20:00S 33°01' E 152°08'1 1.5
2018-Apr-09 19:30S 33°02' E 152°08'0 0.9
2018-Apr-09 19:01S 33°02' E 152°08'5 8.9
2018-Apr-09 18:29S 32°59' E 152°04'4 8.5
2018-Apr-09 18:00S 32°57' E 151°60'5 9.9
2018-Apr-09 17:30S 32°55' E 152°05'611.8
2018-Apr-09 17:01S 32°53' E 152°12'611.8
2018-Apr-09 16:30S 32°51' E 152°18'611.7
2018-Apr-09 16:00S 32°49' E 152°25'611.3
2018-Apr-09 15:31S 32°45' E 152°29'611.3
2018-Apr-09 15:00S 32°40' E 152°33'611.1
2018-Apr-09 14:29S 32°35' E 152°36'510.9
2018-Apr-09 14:01S 32°31' E 152°39'611.1
2018-Apr-09 13:30S 32°26' E 152°43'4114.0
2018-Apr-09 10:35S 31°50' E 153°06'115.6
2018-Apr-09 10:30S 31°49' E 153°06'815.5
2018-Apr-09 10:01S 31°41' E 153°08'815.3
2018-Apr-09 09:30S 31°34' E 153°10'815.5
2018-Apr-09 09:00S 31°26' E 153°12'816.3
2018-Apr-09 08:30S 31°18' E 153°14'13415.7
2018-Apr-08 23:59S 29°07' E 153°45'914.6
2018-Apr-08 23:21S 28°58' E 153°47'514.5
2018-Apr-08 23:00S 28°53' E 153°48'714.8
2018-Apr-08 22:30S 28°46' E 153°50'714.8
2018-Apr-08 22:00S 28°38' E 153°52'714.8
2018-Apr-08 21:30S 28°31' E 153°53'714.8
2018-Apr-08 21:00S 28°24' E 153°53'714.6
2018-Apr-08 20:30S 28°16' E 153°53'714.3
2018-Apr-08 20:00S 28°09' E 153°53'714.2
2018-Apr-08 19:30S 28°02' E 153°54'713.7
2018-Apr-08 19:01S 27°55' E 153°54'713.6
2018-Apr-08 18:29S 27°48' E 153°55'713.5
2018-Apr-08 18:00S 27°42' E 153°55'  

Dump ship's entire track history